Aérodrome :
LOGIN :

S'inscrire | Disclaimer

   EN    FR    IT 

 










Légende :    VFR   VFR Marginal   IFR   IFR Intensif   IFR Très Intensif
Visi : 
Plafond : 
>= 8 km
>= 3000ft
5 à 8 km
1000 à 3000 ft
1500m à 5 km
500 à 1000 ft
800 à 1500m
200 à 500 ft
< 800m
< 200 ft
Symboles :   Orages  Brouillard  Fortes neiges  Fortes précipitations  Vent > 20 kt
SIGMETs :   Divers  Orages  Givrage  Turbulence  Onde Orograph.  Cendres Volcan.






- Altitude de l'aérodrome : 300 ft
- Code IATA : MLA


LMML - Malta Luqa

DERNIER METAR :
  • 061015Z 31013KT 9999 FEW037 17/07 Q1015 NOSIG

METARs EXPIRÉS :
  • 060945Z 30014KT 9999 FEW037 17/07 Q1015 NOSIG
  • 060915Z 31010KT 9999 FEW037 17/08 Q1015 NOSIG
  • 060845Z 31009KT 280V340 9999 FEW037 16/08 Q1015 NOSIG
  • 060815Z 32009KT 9999 FEW037 15/08 Q1015 NOSIG
  • 060745Z 33009KT 9999 FEW030 15/08 Q1014 NOSIG
  • 060715Z 31008KT 9999 FEW030 15/08 Q1014 NOSIG
  • 060645Z 31009KT 9999 FEW030 14/07 Q1014 NOSIG
  • 060615Z 31008KT 9999 FEW030 14/07 Q1014 NOSIG
  • 060545Z 32010KT 9999 FEW030 14/08 Q1014 NOSIG

TAF TAF LMML
Valide du 06 à 06h jusqu'au 07 à 06h UTC


060500Z 0606/0706 31014KT 9999 SCT035
TEMPO 0619/0705 7000 RA BKN008 OVC014



MET'MAP, la Météo Aéronautique d'un coup d'oeil ! - Copyright ORBIFLY Décembre 2007 - Disclaimer

ORBIFLY MET'MAP TEAM :

Programmation & Développement : Alexandra Zaïnal
Sur une idée originale de : Baudouin d'Aumeries
Soutien technique & logistique : Manuel Goepfert
Assistance : Marc-Olivier Méhu




SOURCES & CREDITS :

   NOAA